YTR weather

CFB Trenton
Trenton, Ontario, Canada

Public forecast

Using degrees Celsius for public forecast. Weather courtesy of forecast.io.

Current aviation weather report (METAR) for CFB Trenton

Retrieved 2019/12/06 12:00 UTC (51 minutes ago):

CYTR 061200Z 07004KT 2SM -SN OVC020 M04/M05 A2998 RMK SC8 /S02/ SLP156

Aviation forecast (TAF) for CFB Trenton

Retrieved 2019/12/06 12:30 UTC (21 minutes ago):

TAF CYTR 061127Z 0612/0712 08005KT 1SM -SN BKN008 OVC020 TEMPO 0612/0616 3SM -SN SCT008 OVC020 FM061600 01008KT 5SM -SN BKN010 OVC025 TEMPO 0616/0620 P6SM NSW SCT010 OVC025 FM062000 34010KT P6SM BKN020 OVC025 BECMG 0622/0624 VRB03KT FM070200 VRB03KT 5SM -SHSN BKN015 OVC040 RMK NXT FCST BY 061800Z